createdAt,value
2019-05-10T00:00:05.784Z,1002.1
2019-05-10T00:05:05.607Z,1002.2
2019-05-10T00:10:05.836Z,1002.3
2019-05-10T00:15:05.991Z,1002.4
2019-05-10T00:20:06.374Z,1002.7
2019-05-10T00:25:05.692Z,1002.8
2019-05-10T00:30:05.660Z,1003
2019-05-10T00:35:05.673Z,1003
2019-05-10T00:40:06.325Z,1003.1
2019-05-10T00:45:05.819Z,1003.2
2019-05-10T00:50:05.572Z,1003.1
2019-05-10T00:55:17.957Z,1003.2
2019-05-10T01:00:05.744Z,1003.3
2019-05-10T01:05:05.483Z,1003.3
2019-05-10T01:10:05.567Z,1003.4
2019-05-10T01:15:05.513Z,1003.4
2019-05-10T01:20:05.731Z,1003.4
2019-05-10T01:25:05.861Z,1003.4
2019-05-10T01:30:05.552Z,1003.4
2019-05-10T01:35:05.751Z,1003.7
2019-05-10T01:40:06.159Z,1003.9
2019-05-10T01:45:05.390Z,1004
2019-05-10T01:50:05.676Z,1004
2019-05-10T01:55:05.408Z,1004.1
2019-05-10T02:00:05.902Z,1004.3
2019-05-10T02:05:05.619Z,1004.3
2019-05-10T02:10:05.648Z,1004.3
2019-05-10T02:15:05.859Z,1004.3
2019-05-10T02:20:05.588Z,1004.4
2019-05-10T02:25:05.922Z,1004.6
2019-05-10T02:30:05.872Z,1004.7
2019-05-10T02:35:05.724Z,1004.8
2019-05-10T02:40:05.687Z,1004.9
2019-05-10T02:45:05.642Z,1004.9
2019-05-10T02:50:05.629Z,1005
2019-05-10T02:55:05.288Z,1004.9
2019-05-10T03:00:05.803Z,1005
2019-05-10T03:05:05.716Z,1005.2
2019-05-10T03:10:05.626Z,1005.2
2019-05-10T03:15:05.346Z,1005.3
2019-05-10T03:20:05.368Z,1005.3
2019-05-10T03:25:05.541Z,1005.4
2019-05-10T03:30:05.353Z,1005.5
2019-05-10T03:35:05.392Z,1005.5
2019-05-10T03:40:05.676Z,1005.6
2019-05-10T03:45:05.491Z,1005.6
2019-05-10T03:50:05.200Z,1005.7
2019-05-10T03:55:05.334Z,1005.8
2019-05-10T04:00:06.077Z,1005.8
2019-05-10T04:05:05.350Z,1005.9
2019-05-10T04:10:05.160Z,1005.9
2019-05-10T04:15:05.638Z,1006
2019-05-10T04:20:05.222Z,1006.1
2019-05-10T04:25:05.396Z,1006.1
2019-05-10T04:30:05.285Z,1006.2
2019-05-10T04:35:05.438Z,1006.3
2019-05-10T04:40:05.366Z,1006.4
2019-05-10T04:45:05.344Z,1006.5
2019-05-10T04:50:05.285Z,1006.5
2019-05-10T04:55:05.535Z,1006.6
2019-05-10T05:00:05.129Z,1006.6
2019-05-10T05:05:05.403Z,1006.6
2019-05-10T05:10:05.637Z,1006.7
2019-05-10T05:15:05.409Z,1006.7
2019-05-10T05:20:05.488Z,1006.8
2019-05-10T05:25:05.256Z,1006.8
2019-05-10T05:30:05.295Z,1006.8
2019-05-10T05:35:05.399Z,1006.9
2019-05-10T05:40:05.443Z,1006.9
2019-05-10T05:45:05.178Z,1007
2019-05-10T05:50:05.079Z,1007
2019-05-10T05:55:05.146Z,1007.1
2019-05-10T06:00:06.679Z,1007.2
2019-05-10T06:05:05.180Z,1007.4
2019-05-10T06:10:10.167Z,1007.5
2019-05-10T06:15:05.053Z,1007.5
2019-05-10T06:20:05.879Z,1007.6
2019-05-10T06:25:05.231Z,1007.7
2019-05-10T06:30:05.179Z,1007.8
2019-05-10T06:35:05.162Z,1007.9
2019-05-10T06:40:05.019Z,1008
2019-05-10T06:45:13.803Z,1008.1
2019-05-10T06:50:05.248Z,1008.2
2019-05-10T06:55:05.254Z,1008.3
2019-05-10T07:00:06.847Z,1008.3
2019-05-10T07:05:04.930Z,1008.4
2019-05-10T07:10:13.134Z,1008.4
2019-05-10T07:15:05.537Z,1008.5
2019-05-10T07:20:05.359Z,1008.6
2019-05-10T07:25:07.402Z,1008.6
2019-05-10T07:30:04.849Z,1008.6
2019-05-10T07:35:04.944Z,1008.7
2019-05-10T07:40:04.785Z,1008.7
2019-05-10T07:45:04.911Z,1008.8
2019-05-10T07:50:09.631Z,1008.7
2019-05-10T07:55:04.793Z,1008.8
2019-05-10T08:00:06.189Z,1008.8
2019-05-10T08:05:09.547Z,1008.9
2019-05-10T08:10:05.008Z,1008.9
2019-05-10T08:15:05.338Z,1009
2019-05-10T08:20:09.096Z,1009.1
2019-05-10T08:25:04.982Z,1009.2
2019-05-10T08:30:22.743Z,1009.3
2019-05-10T08:35:05.462Z,1009.4
2019-05-10T08:40:04.809Z,1009.4
2019-05-10T08:45:08.675Z,1009.4
2019-05-10T08:50:19.869Z,1009.5
2019-05-10T08:55:04.750Z,1009.5
2019-05-10T09:00:08.713Z,1009.6
2019-05-10T09:05:05.056Z,1009.7
2019-05-10T09:10:04.951Z,1009.7
2019-05-10T09:15:09.382Z,1009.8
2019-05-10T09:20:04.849Z,1009.8
2019-05-10T09:30:14.073Z,1010
2019-05-10T09:40:09.766Z,1010.1
2019-05-10T09:45:05.051Z,1010.1
2019-05-10T09:55:12.406Z,1010.2
2019-05-10T10:00:07.232Z,1010.2
2019-05-10T10:05:04.808Z,1010.2
2019-05-10T10:10:07.158Z,1010.2
2019-05-10T10:15:04.560Z,1010.2
2019-05-10T10:20:04.812Z,1010.3
2019-05-10T10:25:07.199Z,1010.3
2019-05-10T10:30:06.501Z,1010.4
2019-05-10T10:35:04.533Z,1010.4
2019-05-10T10:40:07.866Z,1010.4
2019-05-10T10:45:04.606Z,1010.4
2019-05-10T10:50:09.080Z,1010.3
2019-05-10T10:55:05.533Z,1010.4
2019-05-10T11:00:04.770Z,1010.3
2019-05-10T11:05:04.757Z,1010.4
2019-05-10T11:10:14.927Z,1010.4
2019-05-10T11:15:04.748Z,1010.4
2019-05-10T11:20:08.288Z,1010.4
2019-05-10T11:25:09.426Z,1010.3
2019-05-10T11:30:04.606Z,1010.3
2019-05-10T11:35:05.517Z,1010.4
2019-05-10T11:40:04.597Z,1010.4
2019-05-10T11:45:04.712Z,1010.4
2019-05-10T11:50:06.488Z,1010.4
2019-05-10T11:55:04.651Z,1010.4
2019-05-10T12:00:04.539Z,1010.6
2019-05-10T12:05:16.835Z,1010.6
2019-05-10T12:10:16.948Z,1010.6
2019-05-10T12:15:04.813Z,1010.6
2019-05-10T12:20:04.640Z,1010.7
2019-05-10T12:25:27.382Z,1010.7
2019-05-10T12:30:04.435Z,1010.7
2019-05-10T12:35:04.658Z,1010.7
2019-05-10T12:40:09.819Z,1010.7
2019-05-10T12:45:04.429Z,1010.7
2019-05-10T12:50:04.692Z,1010.7
2019-05-10T12:55:04.589Z,1010.7
2019-05-10T13:00:06.907Z,1010.8
2019-05-10T13:05:04.341Z,1010.8
2019-05-10T13:10:07.396Z,1010.9
2019-05-10T13:15:04.346Z,1010.9
2019-05-10T13:20:04.457Z,1011
2019-05-10T13:25:04.295Z,1011.1
2019-05-10T13:30:04.478Z,1011.1
2019-05-10T13:35:04.444Z,1011.1
2019-05-10T13:40:06.220Z,1011.2
2019-05-10T13:45:04.447Z,1011.2
2019-05-10T13:50:04.574Z,1011.3
2019-05-10T13:55:04.473Z,1011.3
2019-05-10T14:00:04.736Z,1011.4
2019-05-10T14:05:04.642Z,1011.4
2019-05-10T14:10:05.144Z,1011.5
2019-05-10T14:15:09.842Z,1011.5
2019-05-10T14:20:04.341Z,1011.4
2019-05-10T14:25:04.694Z,1011.5
2019-05-10T14:30:07.195Z,1011.5
2019-05-10T14:35:04.384Z,1011.4
2019-05-10T14:40:04.348Z,1011.4
2019-05-10T14:45:04.628Z,1011.4
2019-05-10T14:50:04.835Z,1011.4
2019-05-10T14:55:04.845Z,1011.4
2019-05-10T15:00:04.359Z,1011.4
2019-05-10T15:05:08.882Z,1011.4
2019-05-10T15:10:06.418Z,1011.4
2019-05-10T15:15:07.129Z,1011.4
2019-05-10T15:20:05.334Z,1011.4
2019-05-10T15:25:04.361Z,1011.4
2019-05-10T15:30:06.020Z,1011.4
2019-05-10T15:35:07.065Z,1011.3
2019-05-10T15:40:05.978Z,1011.3
2019-05-10T15:45:11.284Z,1011.3
2019-05-10T15:50:04.357Z,1011.4
2019-05-10T15:55:04.603Z,1011.4
2019-05-10T16:00:04.969Z,1011.3
2019-05-10T16:05:22.225Z,1011.3
2019-05-10T16:10:04.716Z,1011.3
2019-05-10T16:15:19.853Z,1011.2
2019-05-10T16:20:04.309Z,1011.3
2019-05-10T16:25:41.181Z,1011.3
2019-05-10T16:30:04.400Z,1011.3
2019-05-10T16:35:38.012Z,1011.3
2019-05-10T16:40:04.737Z,1011.2
2019-05-10T16:45:08.655Z,1011.2
2019-05-10T16:50:04.465Z,1011.2
2019-05-10T16:55:05.468Z,1011.1
2019-05-10T17:00:08.242Z,1011.1
2019-05-10T17:05:04.189Z,1011.2
2019-05-10T17:10:04.238Z,1011.1
2019-05-10T17:15:04.274Z,1011.1
2019-05-10T17:20:07.504Z,1011
2019-05-10T17:25:05.389Z,1011.1
2019-05-10T17:30:06.345Z,1011.1
2019-05-10T17:35:05.021Z,1011.1
2019-05-10T17:40:04.758Z,1011.1
2019-05-10T17:45:04.547Z,1011.1
2019-05-10T17:50:04.304Z,1011.1
2019-05-10T17:55:04.205Z,1011.1
2019-05-10T18:00:04.338Z,1011.1
2019-05-10T18:05:06.340Z,1011.1
2019-05-10T18:10:04.034Z,1011.2
2019-05-10T18:15:04.961Z,1011.3
2019-05-10T18:20:04.181Z,1011.3
2019-05-10T18:25:03.944Z,1011.3
2019-05-10T18:30:04.309Z,1011.4
2019-05-10T18:35:13.219Z,1011.5
2019-05-10T18:40:04.180Z,1011.7
2019-05-10T18:45:04.007Z,1011.7
2019-05-10T18:50:04.004Z,1011.5
2019-05-10T18:55:04.114Z,1011.5
2019-05-10T19:00:04.225Z,1011.6
2019-05-10T19:05:03.851Z,1011.7
2019-05-10T19:10:04.163Z,1011.7
2019-05-10T19:15:09.202Z,1011.7
2019-05-10T19:20:09.691Z,1011.7
2019-05-10T19:25:11.296Z,1011.7
2019-05-10T19:30:03.922Z,1011.7
2019-05-10T19:35:03.882Z,1011.8
2019-05-10T19:40:04.014Z,1011.8
2019-05-10T19:45:03.865Z,1011.8
2019-05-10T19:50:03.999Z,1011.9
2019-05-10T19:55:04.194Z,1011.9
2019-05-10T20:00:03.823Z,1012
2019-05-10T20:05:03.737Z,1012
2019-05-10T20:10:07.406Z,1012.1
2019-05-10T20:15:03.821Z,1012
2019-05-10T20:20:03.843Z,1011.9
2019-05-10T20:25:03.949Z,1011.9
2019-05-10T20:30:03.951Z,1012
2019-05-10T20:35:04.051Z,1011.9
2019-05-10T20:40:03.725Z,1011.9
2019-05-10T20:45:07.921Z,1012
2019-05-10T20:50:03.852Z,1012
2019-05-10T20:55:04.091Z,1011.9
2019-05-10T21:00:03.877Z,1011.8
2019-05-10T21:05:03.777Z,1011.8
2019-05-10T21:10:03.643Z,1011.9
2019-05-10T21:15:03.923Z,1011.8
2019-05-10T21:20:03.804Z,1011.8
2019-05-10T21:25:03.724Z,1011.7
2019-05-10T21:30:03.758Z,1011.7
2019-05-10T21:35:03.885Z,1011.7
2019-05-10T21:40:03.823Z,1011.7
2019-05-10T21:45:03.769Z,1011.7
2019-05-10T21:50:03.747Z,1011.7
2019-05-10T21:55:03.795Z,1011.7
2019-05-10T22:00:03.775Z,1011.7
2019-05-10T22:05:03.717Z,1011.7
2019-05-10T22:10:03.711Z,1011.6
2019-05-10T22:15:03.816Z,1011.6
2019-05-10T22:20:03.658Z,1011.6
2019-05-10T22:25:03.795Z,1011.6
2019-05-10T22:30:03.766Z,1011.6
2019-05-10T22:35:03.846Z,1011.6
2019-05-10T22:40:03.708Z,1011.5
2019-05-10T22:45:04.077Z,1011.6
2019-05-10T22:50:03.717Z,1011.6
2019-05-10T22:55:03.870Z,1011.5
2019-05-10T23:00:03.848Z,1011.6
2019-05-10T23:05:03.955Z,1011.5
2019-05-10T23:10:04.645Z,1011.5
2019-05-10T23:15:04.454Z,1011.5
2019-05-10T23:20:03.620Z,1011.3
2019-05-10T23:25:03.888Z,1011.4
2019-05-10T23:30:03.767Z,1011.5
2019-05-10T23:35:03.698Z,1011.5
2019-05-10T23:40:03.676Z,1011.5
2019-05-10T23:45:03.787Z,1011.5
2019-05-10T23:50:03.488Z,1011.6
2019-05-10T23:55:03.700Z,1011.6
